Time;durP1;ratioP1;P1;durP2;ratioP2;P2;SDS_P1;SDS_P2;PMS_P1;PMS_P2;Temp;Humidity;BMP_temperature;BMP_pressure;BME280_temperature;BME280_humidity;BME280_pressure;Samples;Min_cycle;Max_cycle;Signal;HPM_P1;HPM_P2
2022/01/12 00:01:21;;;;;;;10.23;8.85;;;;;;;18.46;37.38;102243.91;4996579;28;20053;-80
2022/01/12 00:03:49;;;;;;;10.15;9.00;;;;;;;18.48;37.69;102265.31;5013763;28;20402;-82
2022/01/12 00:06:16;;;;;;;12.10;8.98;;;;;;;18.48;37.51;102247.38;5014323;28;20052;-81
2022/01/12 00:08:44;;;;;;;11.70;9.25;;;;;;;18.50;37.70;102247.28;5014104;28;20441;-80
2022/01/12 00:11:11;;;;;;;10.93;8.88;;;;;;;18.49;37.69;102230.34;5013676;28;20046;-80
2022/01/12 00:13:39;;;;;;;9.98;8.73;;;;;;;18.51;37.59;102246.31;5014668;28;20052;-80
2022/01/12 00:16:06;;;;;;;12.55;8.68;;;;;;;18.52;37.70;102256.13;5013857;28;20498;-80
2022/01/12 00:18:34;;;;;;;9.48;7.63;;;;;;;18.53;37.65;102253.34;5013685;28;20046;-80
2022/01/12 00:21:02;;;;;;;12.02;10.20;;;;;;;18.55;37.74;102261.28;5013118;28;20050;-80
2022/01/12 00:23:29;;;;;;;10.80;8.93;;;;;;;18.55;37.85;102247.88;5014107;28;20069;-80
2022/01/12 00:26:09;;;;;;;12.77;9.18;;;;;;;18.56;37.71;102260.34;5013355;28;20045;-80
2022/01/12 00:34:19;;;;;;;10.45;8.20;;;;;;;18.53;38.08;102258.69;5012312;28;20125;-79
2022/01/12 00:36:47;;;;;;;10.48;8.38;;;;;;;18.54;38.08;102273.81;5012266;28;20524;-79
2022/01/12 00:39:16;;;;;;;10.15;8.43;;;;;;;18.54;38.04;102272.97;5012567;28;20053;-79
2022/01/12 00:41:44;;;;;;;9.45;8.23;;;;;;;18.54;38.22;102275.66;5012195;28;20061;-79
2022/01/12 00:44:22;;;;;;;8.73;7.75;;;;;;;18.53;38.08;102269.44;5013753;28;20044;-79
2022/01/12 00:46:52;;;;;;;10.07;8.77;;;;;;;18.53;37.97;102269.44;5012366;28;20053;-79
2022/01/12 00:49:20;;;;;;;9.00;8.10;;;;;;;18.53;37.92;102276.59;5012904;28;20474;-79
2022/01/12 00:51:50;;;;;;;12.52;8.70;;;;;;;18.53;37.99;102268.56;5011955;28;20050;-80
2022/01/12 00:54:17;;;;;;;10.43;7.63;;;;;;;18.53;37.91;102274.78;5011616;28;20413;-80
2022/01/12 00:56:44;;;;;;;11.25;8.95;;;;;;;18.53;38.05;102276.59;5012295;28;20050;-79
2022/01/12 00:59:13;;;;;;;9.75;8.00;;;;;;;18.53;37.87;102280.16;5013570;28;20042;-80
2022/01/12 01:01:41;;;;;;;10.80;8.68;;;;;;;18.54;37.90;102291.75;5013077;28;20042;-80
2022/01/12 01:04:09;;;;;;;10.85;8.43;;;;;;;18.53;37.92;102290.03;5012579;28;20045;-80
2022/01/12 01:06:37;;;;;;;9.02;8.13;;;;;;;18.53;37.97;102292.69;5013346;28;20038;-80
2022/01/12 01:09:05;;;;;;;10.35;8.25;;;;;;;18.53;37.94;102298.06;5011841;28;20409;-80
2022/01/12 01:11:34;;;;;;;11.55;8.77;;;;;;;18.53;37.91;102300.75;5011614;28;20054;-80
2022/01/12 01:14:14;;;;;;;9.23;8.23;;;;;;;18.52;37.95;102299.88;5012502;28;20046;-80
2022/01/12 01:16:51;;;;;;;9.73;8.35;;;;;;;18.51;37.89;102303.53;5011735;28;20061;-80
2022/01/12 01:27:37;;;;;;;9.25;7.97;;;;;;;18.51;37.51;102295.50;5011873;28;20050;-81
2022/01/12 01:30:04;;;;;;;10.98;8.48;;;;;;;18.51;37.46;102290.13;5013447;28;20053;-80
2022/01/12 01:32:35;;;;;;;9.90;7.95;;;;;;;18.52;37.49;102288.31;5013729;28;20050;-80
2022/01/12 01:35:02;;;;;;;9.25;7.80;;;;;;;18.51;37.50;102294.59;5016686;28;20524;-81
2022/01/12 01:37:30;;;;;;;9.68;8.02;;;;;;;18.50;37.49;102284.81;5016350;28;20049;-80
2022/01/12 01:39:57;;;;;;;10.05;8.10;;;;;;;18.52;37.42;102293.66;5015142;28;20054;-80
2022/01/12 01:42:39;;;;;;;9.55;8.18;;;;;;;18.51;37.60;102298.16;5015197;28;20049;-80
2022/01/12 01:53:30;;;;;;;9.63;7.40;;;;;;;18.50;37.57;102295.56;5015087;28;20054;-80
2022/01/12 01:55:57;;;;;;;9.23;7.82;;;;;;;18.50;37.36;102295.56;5015324;28;20057;-80
2022/01/12 01:58:25;;;;;;;9.15;7.70;;;;;;;18.49;37.58;102296.53;5015259;28;20061;-80
2022/01/12 02:00:52;;;;;;;8.77;7.85;;;;;;;18.49;37.46;102299.19;5015033;28;20054;-80
2022/01/12 02:03:27;;;;;;;9.07;8.15;;;;;;;18.49;37.46;102312.59;5014948;28;20058;-80
2022/01/12 02:05:58;;;;;;;11.02;6.95;;;;;;;18.48;37.50;102313.56;5014849;28;20517;-80
2022/01/12 02:08:28;;;;;;;8.75;7.38;;;;;;;18.48;37.70;102313.56;5014670;28;20054;-80
2022/01/12 02:11:26;;;;;;;9.90;7.53;;;;;;;18.47;37.48;102320.75;4974767;28;20058;-80
2022/01/12 02:13:58;;;;;;;9.05;7.13;;;;;;;18.47;37.58;102319.88;4958426;28;20051;-80
2022/01/12 02:16:33;;;;;;;8.93;7.35;;;;;;;18.47;37.47;102314.50;4974374;28;20065;-81
2022/01/12 02:19:28;;;;;;;8.82;6.90;;;;;;;18.45;37.51;102317.28;4958321;28;20066;-81
2022/01/12 02:35:54;;;;;;;8.75;7.10;;;;;;;18.49;37.22;102313.47;4974549;28;20147;-80
2022/01/12 02:41:08;;;;;;;7.70;6.50;;;;;;;18.49;37.43;102324.19;4974054;28;20058;-81
2022/01/12 02:53:39;;;;;;;7.53;6.45;;;;;;;18.53;37.09;102317.69;5015155;28;20054;-81
2022/01/12 02:54:23;;;;;;;7.65;6.88;;;;;;;18.53;37.14;102316.84;5013958;28;20049;-81
2022/01/12 02:56:51;;;;;;;8.90;7.15;;;;;;;18.53;37.11;102322.19;4998430;28;20054;-81
2022/01/12 02:59:18;;;;;;;9.98;6.57;;;;;;;18.54;37.10;102329.28;5014877;28;20053;-81
2022/01/12 03:04:13;;;;;;;8.05;6.45;;;;;;;18.53;36.99;102339.16;5014717;28;20046;-80
2022/01/12 03:06:42;;;;;;;8.20;6.28;;;;;;;18.53;37.10;102341.84;5013674;28;20050;-80
2022/01/12 03:09:11;;;;;;;8.10;6.68;;;;;;;18.54;37.00;102351.59;5013638;28;20050;-80
2022/01/12 03:11:39;;;;;;;8.57;6.50;;;;;;;18.54;37.17;102348.06;5013316;28;20050;-80
2022/01/12 03:14:12;;;;;;;7.13;6.43;;;;;;;18.54;37.03;102340.00;5014160;28;20058;-80
2022/01/12 03:16:42;;;;;;;8.38;6.55;;;;;;;18.54;37.17;102340.00;5012999;28;20046;-80
2022/01/12 03:19:16;;;;;;;6.80;6.20;;;;;;;18.54;37.09;102353.44;5013045;28;20046;-80
2022/01/12 03:21:44;;;;;;;7.53;6.05;;;;;;;18.54;37.03;102366.84;5013351;28;20050;-81
2022/01/12 03:24:13;;;;;;;7.00;6.00;;;;;;;18.54;36.95;102361.47;5013011;28;20053;-81
2022/01/12 03:26:41;;;;;;;7.95;6.05;;;;;;;18.53;36.91;102357.06;5013249;28;20054;-80
2022/01/12 03:29:12;;;;;;;9.15;5.78;;;;;;;18.52;37.04;102363.41;5013264;28;20508;-80
2022/01/12 03:31:40;;;;;;;6.93;5.72;;;;;;;18.51;36.92;102369.69;5012917;28;20435;-81
2022/01/12 03:34:30;;;;;;;8.55;5.90;;;;;;;18.52;36.92;102366.94;5014108;28;20042;-81
2022/01/12 03:39:55;;;;;;;9.02;6.75;;;;;;;18.50;36.87;102359.91;5013184;28;20046;-81
2022/01/12 03:42:22;;;;;;;6.78;6.05;;;;;;;18.51;36.89;102361.63;5012997;28;20046;-80
2022/01/12 03:44:51;;;;;;;7.88;5.93;;;;;;;18.50;36.81;102365.28;5012864;28;20058;-79
2022/01/12 03:47:18;;;;;;;6.45;5.70;;;;;;;18.50;36.89;102367.97;5012955;28;20628;-79
2022/01/12 03:49:46;;;;;;;7.95;6.45;;;;;;;18.50;36.84;102382.22;5012500;28;20053;-80
2022/01/12 03:52:15;;;;;;;6.90;5.95;;;;;;;18.50;36.94;102392.97;5013267;28;20045;-80
2022/01/12 03:54:42;;;;;;;6.95;5.55;;;;;;;18.50;36.96;102392.09;5013190;28;20050;-80
2022/01/12 03:57:09;;;;;;;7.32;6.05;;;;;;;18.50;36.88;102386.75;5013398;28;20046;-80
2022/01/12 03:59:38;;;;;;;6.63;5.95;;;;;;;18.49;36.81;102393.06;4996958;28;20053;-80
2022/01/12 04:02:06;;;;;;;7.72;5.88;;;;;;;18.50;36.87;102397.47;5012401;28;20422;-80
2022/01/12 04:04:42;;;;;;;7.30;5.90;;;;;;;18.51;36.99;102401.88;5014150;28;20513;-80
2022/01/12 04:09:55;;;;;;;6.75;6.05;;;;;;;18.50;36.91;102408.19;5012530;28;20149;-80
2022/01/12 04:12:26;;;;;;;6.88;5.85;;;;;;;18.50;36.78;102410.88;5013534;28;20046;-81
2022/01/12 04:14:53;;;;;;;6.25;5.50;;;;;;;18.49;36.63;102401.97;4996209;28;20060;-80
2022/01/12 04:17:20;;;;;;;7.18;6.05;;;;;;;18.50;36.68;102397.47;5012175;28;20054;-80
2022/01/12 04:19:48;;;;;;;6.75;5.97;;;;;;;18.51;36.81;102401.88;5013369;28;20422;-79
2022/01/12 04:25:02;;;;;;;8.05;5.88;;;;;;;18.48;36.84;102396.72;5012304;28;20524;-80
2022/01/12 04:27:31;;;;;;;7.57;6.03;;;;;;;18.49;36.94;102401.09;5012044;28;20050;-79
2022/01/12 04:29:59;;;;;;;7.70;6.15;;;;;;;18.48;36.96;102392.19;5013372;28;20054;-80
2022/01/12 04:32:27;;;;;;;8.27;6.00;;;;;;;18.48;36.77;102394.03;5013596;28;20406;-80
2022/01/12 04:34:55;;;;;;;6.93;5.97;;;;;;;18.48;36.93;102388.66;4996833;28;20046;-79
2022/01/12 04:37:22;;;;;;;7.18;5.95;;;;;;;18.48;36.90;102388.66;5013645;28;20050;-79
2022/01/12 04:39:49;;;;;;;6.00;5.38;;;;;;;18.47;36.95;102381.53;5012306;28;20064;-80
2022/01/12 04:42:17;;;;;;;7.90;6.38;;;;;;;18.49;36.84;102379.66;5012224;28;20053;-80
2022/01/12 04:44:47;;;;;;;6.50;5.60;;;;;;;18.47;36.85;102371.72;5012163;28;20497;-80
2022/01/12 04:47:29;;;;;;;6.47;5.82;;;;;;;18.46;36.92;102380.69;5011690;28;20053;-79
2022/01/12 04:49:59;;;;;;;7.10;6.40;;;;;;;18.45;36.93;102384.31;5012494;28;20050;-80
2022/01/12 04:52:26;;;;;;;6.57;5.68;;;;;;;18.45;37.16;102383.47;5012311;28;20058;-80
2022/01/12 04:54:55;;;;;;;7.40;5.32;;;;;;;18.45;36.95;102388.81;4995980;28;20049;-81
2022/01/12 04:57:24;;;;;;;8.38;6.10;;;;;;;18.46;36.95;102406.63;5012559;28;20060;-80
2022/01/12 05:00:07;;;;;;;6.70;6.00;;;;;;;18.45;36.89;102415.66;5011978;28;20053;-80
2022/01/12 05:13:40;;;;;;;6.55;5.25;;;;;;;18.39;37.09;102454.41;5017494;28;20037;-80
2022/01/12 05:16:10;;;;;;;6.75;5.57;;;;;;;18.39;36.86;102448.16;5015105;28;20038;-80
2022/01/12 05:18:41;;;;;;;8.07;5.05;;;;;;;18.38;37.06;102460.69;4999622;28;20053;-80
2022/01/12 05:21:10;;;;;;;6.75;5.50;;;;;;;18.36;37.13;102459.94;5015728;28;20461;-80
2022/01/12 05:23:38;;;;;;;7.18;5.75;;;;;;;18.36;37.00;102459.06;5016908;28;20049;-80
2022/01/12 05:26:06;;;;;;;7.03;5.82;;;;;;;18.35;37.02;102462.69;5015489;28;20072;-80
2022/01/12 05:28:35;;;;;;;7.75;6.03;;;;;;;18.34;36.87;102460.97;5015472;28;20050;-80
2022/01/12 05:31:03;;;;;;;6.38;5.47;;;;;;;18.33;37.28;102468.16;5017037;28;20049;-80
2022/01/12 05:33:32;;;;;;;8.18;6.15;;;;;;;18.32;37.03;102462.88;5015362;28;20057;-80
2022/01/12 05:36:04;;;;;;;6.95;5.82;;;;;;;18.31;36.95;102471.84;5015077;28;20516;-80
2022/01/12 05:38:33;;;;;;;9.50;5.80;;;;;;;18.30;37.18;102462.94;5015546;28;20045;-80
2022/01/12 05:41:05;;;;;;;6.78;5.35;;;;;;;18.29;36.92;102462.09;5015385;28;20057;-81
2022/01/12 05:43:35;;;;;;;6.95;5.78;;;;;;;18.29;36.91;102454.03;5015232;28;20061;-81
2022/01/12 05:46:11;;;;;;;6.68;5.15;;;;;;;18.31;36.71;102456.66;4999563;28;20494;-81
2022/01/12 05:51:37;;;;;;;7.55;5.78;;;;;;;18.34;36.70;102477.06;5015351;28;20490;-81
2022/01/12 05:54:04;;;;;;;6.95;5.53;;;;;;;18.34;36.69;102479.72;5016871;28;20394;-81
2022/01/12 05:56:32;;;;;;;6.53;5.47;;;;;;;18.35;36.48;102476.09;5015025;28;20050;-80
2022/01/12 05:58:59;;;;;;;5.82;5.22;;;;;;;18.34;36.58;102469.88;5014834;28;20093;-81
2022/01/12 06:01:27;;;;;;;7.95;5.95;;;;;;;18.34;36.71;102471.69;5014897;28;20046;-81
2022/01/12 06:03:55;;;;;;;6.82;5.88;;;;;;;18.35;36.62;102470.72;5014518;28;20049;-81
2022/01/12 06:06:23;;;;;;;7.50;5.78;;;;;;;18.35;36.56;102468.03;5014733;28;20402;-81
2022/01/12 06:08:52;;;;;;;8.90;6.22;;;;;;;18.34;36.65;102471.69;5014769;28;20054;-83
2022/01/12 06:11:19;;;;;;;7.65;5.35;;;;;;;18.33;36.86;102473.50;5014649;28;20057;-83
2022/01/12 06:13:50;;;;;;;6.78;5.88;;;;;;;18.33;36.94;102475.31;5014581;28;20061;-82
2022/01/12 06:16:18;;;;;;;7.43;5.50;;;;;;;18.33;36.81;102473.50;5014490;28;20053;-82
2022/01/12 06:18:47;;;;;;;7.55;5.93;;;;;;;18.33;36.76;102486.06;5014304;28;20053;-81
2022/01/12 06:21:14;;;;;;;7.53;5.25;;;;;;;18.33;36.79;102488.72;5014394;28;20058;-81
2022/01/12 06:23:51;;;;;;;8.50;5.90;;;;;;;18.32;36.90;102497.72;5014098;28;20050;-80
2022/01/12 06:26:24;;;;;;;6.47;5.45;;;;;;;18.32;36.95;102501.28;4998978;28;20052;-81
2022/01/12 06:29:24;;;;;;;7.47;5.53;;;;;;;18.29;36.90;102493.41;5014298;28;20054;-80
2022/01/12 06:31:43;;;;;;;6.95;5.88;;;;;;;18.27;36.90;102498.84;5013899;28;20062;-81
2022/01/12 06:34:11;;;;;;;7.78;5.40;;;;;;;18.25;36.91;102500.75;5014242;28;20053;-81
2022/01/12 06:36:39;;;;;;;6.50;5.82;;;;;;;18.25;36.79;102505.25;5014362;28;20060;-81
2022/01/12 06:39:09;;;;;;;6.13;5.25;;;;;;;18.24;36.75;102500.84;5014331;28;20049;-83
2022/01/12 06:41:39;;;;;;;7.93;5.95;;;;;;;18.21;36.79;102507.22;5015595;28;20449;-81
2022/01/12 06:44:07;;;;;;;7.90;5.00;;;;;;;18.21;37.23;102515.25;5015966;28;20050;-81
2022/01/12 06:46:37;;;;;;;6.53;5.35;;;;;;;18.20;37.20;102521.56;5014282;28;20046;-81
2022/01/12 06:49:05;;;;;;;8.35;5.50;;;;;;;18.19;37.15;102525.22;5014419;28;20532;-81
2022/01/12 06:51:32;;;;;;;7.85;4.97;;;;;;;18.19;37.27;102530.56;5014033;28;20512;-82
2022/01/12 06:54:03;;;;;;;7.95;6.15;;;;;;;18.17;37.25;102529.78;4998102;28;20414;-82
2022/01/12 06:56:31;;;;;;;6.55;5.32;;;;;;;18.17;37.00;102535.13;5014847;28;20042;-82
2022/01/12 06:59:00;;;;;;;9.63;6.47;;;;;;;18.17;37.19;102527.09;4997534;28;20068;-83
2022/01/12 07:01:28;;;;;;;9.05;5.75;;;;;;;18.18;37.16;102534.19;5013738;28;20050;-82
2022/01/12 07:03:55;;;;;;;10.52;6.88;;;;;;;18.18;36.93;102539.53;4997577;28;20057;-83
2022/01/12 07:06:23;;;;;;;8.23;4.97;;;;;;;18.17;36.97;102536.97;5013616;28;20393;-82
2022/01/12 07:08:51;;;;;;;10.43;5.93;;;;;;;18.16;36.94;102530.72;5013809;28;20505;-82
2022/01/12 07:11:31;;;;;;;10.27;6.10;;;;;;;18.17;36.92;102545.00;5013810;28;20058;-82
2022/01/12 07:14:08;;;;;;;9.30;6.28;;;;;;;18.16;36.92;102546.81;5013594;28;20060;-82
2022/01/12 07:16:36;;;;;;;9.10;5.88;;;;;;;18.17;37.03;102553.91;5013363;28;20061;-82
2022/01/12 07:19:03;;;;;;;8.27;5.60;;;;;;;18.16;36.79;102554.84;5013415;28;20061;-82
2022/01/12 07:21:31;;;;;;;7.88;6.10;;;;;;;18.15;36.84;102555.81;5013692;28;20482;-82
2022/01/12 07:23:59;;;;;;;9.68;5.82;;;;;;;18.15;36.73;102563.84;5014967;28;20049;-82
2022/01/12 07:26:26;;;;;;;8.63;5.43;;;;;;;18.15;36.77;102571.00;5014602;28;20386;-82
2022/01/12 07:28:54;;;;;;;12.98;6.10;;;;;;;18.13;36.79;102579.13;5014952;28;20386;-81
2022/01/12 07:31:22;;;;;;;7.75;5.82;;;;;;;18.13;36.82;102579.13;5014366;28;20056;-81
2022/01/12 07:33:56;;;;;;;9.88;5.25;;;;;;;18.14;36.70;102577.31;5014450;28;20049;-82
2022/01/12 07:36:24;;;;;;;10.38;6.00;;;;;;;18.13;36.86;102584.50;5014941;28;20052;-82
2022/01/12 07:38:55;;;;;;;10.07;5.35;;;;;;;18.13;36.92;102591.69;5014152;28;20486;-82
2022/01/12 07:41:23;;;;;;;9.20;5.63;;;;;;;18.14;37.09;102588.03;5014279;28;20046;-81
2022/01/12 07:43:50;;;;;;;7.88;5.97;;;;;;;18.14;36.97;102593.41;5014061;28;20049;-81
2022/01/12 07:46:18;;;;;;;11.18;6.30;;;;;;;18.11;37.00;102591.78;4997173;28;20053;-82
2022/01/12 07:48:46;;;;;;;9.85;6.35;;;;;;;18.11;36.70;102594.44;5013909;28;20038;-84
2022/01/12 07:51:14;;;;;;;9.10;6.15;;;;;;;18.10;36.96;102608.78;5012568;28;20057;-82
2022/01/12 07:53:41;;;;;;;9.82;5.65;;;;;;;18.10;36.73;102610.59;5013959;28;20050;-83
2022/01/12 07:56:08;;;;;;;11.88;5.40;;;;;;;18.10;37.32;102615.94;5012792;28;20425;-82
2022/01/12 07:58:36;;;;;;;10.25;5.30;;;;;;;18.10;37.52;102619.50;5013794;28;20042;-83
2022/01/12 08:01:04;;;;;;;9.63;6.00;;;;;;;18.10;37.23;102624.84;5013097;28;20046;-83
2022/01/12 08:03:32;;;;;;;11.43;6.38;;;;;;;18.09;37.13;102625.81;5013779;28;20056;-82
2022/01/12 08:06:00;;;;;;;11.00;6.03;;;;;;;18.10;37.20;102630.22;5013705;28;20056;-83
2022/01/12 08:08:27;;;;;;;7.47;5.00;;;;;;;18.09;37.99;102639.22;5013782;28;20038;-83
2022/01/12 08:10:55;;;;;;;9.13;5.72;;;;;;;18.08;37.96;102641.97;5013515;28;20056;-83
2022/01/12 08:13:22;;;;;;;11.23;5.53;;;;;;;18.08;38.43;102645.53;5013837;28;20061;-83
2022/01/12 08:15:49;;;;;;;6.20;4.95;;;;;;;18.07;38.41;102642.91;5012736;28;20058;-86
2022/01/12 08:18:17;;;;;;;10.60;5.97;;;;;;;18.08;38.87;102650.88;5013777;28;20049;-84
2022/01/12 08:20:44;;;;;;;7.28;5.70;;;;;;;18.06;38.77;102644.72;5015292;28;20057;-87
2022/01/12 08:23:12;;;;;;;7.82;5.50;;;;;;;18.03;38.71;102651.13;5014409;28;20042;-84
2022/01/12 08:25:40;;;;;;;10.45;6.65;;;;;;;18.01;37.98;102647.66;5012838;28;20057;-83
2022/01/12 08:28:08;;;;;;;10.88;7.13;;;;;;;18.00;37.92;102647.75;5013616;28;20046;-82
2022/01/12 08:30:36;;;;;;;10.38;6.60;;;;;;;18.00;37.40;102655.78;5013456;28;20081;-83
2022/01/12 08:33:06;;;;;;;9.75;7.50;;;;;;;17.97;36.54;102667.50;5013672;28;20057;-82
2022/01/12 08:35:34;;;;;;;12.52;7.30;;;;;;;17.95;36.02;102668.56;5013716;28;20050;-85
2022/01/12 08:38:02;;;;;;;10.95;7.88;;;;;;;17.93;36.53;102676.66;5013648;28;20045;-85
2022/01/12 08:40:31;;;;;;;13.50;7.32;;;;;;;17.91;35.91;102673.19;5014039;28;20058;-85
2022/01/12 08:42:59;;;;;;;10.23;7.22;;;;;;;17.91;36.11;102675.00;5013732;28;20046;-84
2022/01/12 08:45:26;;;;;;;11.68;7.85;;;;;;;17.92;35.97;102687.47;5014198;28;20057;-84
2022/01/12 08:47:53;;;;;;;10.57;7.78;;;;;;;17.93;36.08;102683.81;5013633;28;20054;-87
2022/01/12 08:50:21;;;;;;;11.80;7.63;;;;;;;17.93;36.07;102697.22;5012210;28;20401;-86
2022/01/12 08:52:50;;;;;;;11.68;7.63;;;;;;;17.94;35.92;102698.94;4996376;28;20391;-86
2022/01/12 08:55:22;;;;;;;12.18;7.53;;;;;;;17.95;35.91;102716.78;5011785;28;20042;-84
2022/01/12 08:57:51;;;;;;;12.10;7.68;;;;;;;17.94;35.57;102715.03;5013962;28;20576;-85
2022/01/12 09:00:19;;;;;;;13.93;7.75;;;;;;;17.94;35.96;102715.88;5013052;28;20050;-82
2022/01/12 09:02:46;;;;;;;13.00;7.38;;;;;;;17.96;35.94;102707.78;5013081;28;20057;-83
2022/01/12 09:05:15;;;;;;;9.98;7.75;;;;;;;17.95;35.85;102703.38;5013666;28;20073;-87
2022/01/12 09:07:42;;;;;;;12.50;7.15;;;;;;;17.96;35.83;102718.50;4995978;28;20525;-84
2022/01/12 09:10:11;;;;;;;13.85;7.35;;;;;;;17.97;35.86;102730.97;5011608;28;20094;-85
2022/01/12 09:12:39;;;;;;;10.35;6.78;;;;;;;17.97;36.14;102736.31;5013033;28;20073;-84
2022/01/12 09:15:13;;;;;;;13.77;7.43;;;;;;;17.98;35.94;102738.03;5013352;28;20054;-84
2022/01/12 09:17:42;;;;;;;10.70;6.80;;;;;;;17.98;35.76;102732.69;4995924;28;20050;-84
2022/01/12 09:20:10;;;;;;;10.20;7.97;;;;;;;17.98;35.65;102735.38;5012082;28;20049;-85
2022/01/12 09:22:40;;;;;;;10.88;7.47;;;;;;;17.98;35.74;102743.41;5012251;28;20046;-88
2022/01/12 09:25:08;;;;;;;11.25;6.90;;;;;;;17.97;35.82;102744.34;5013317;28;20046;-87
2022/01/12 09:27:36;;;;;;;10.32;7.75;;;;;;;17.97;35.55;102747.03;5011989;28;20053;-87
2022/01/12 09:30:05;;;;;;;9.43;7.88;;;;;;;17.96;35.55;102751.53;5013081;28;20049;-88
2022/01/12 09:32:32;;;;;;;10.93;7.40;;;;;;;17.96;35.45;102762.25;5011565;28;20058;-86
2022/01/12 09:35:00;;;;;;;14.15;6.63;;;;;;;17.98;35.55;102764.84;5012160;28;20390;-84
2022/01/12 09:37:28;;;;;;;11.85;7.15;;;;;;;17.98;35.70;102767.53;5011392;28;20054;-85
2022/01/12 09:39:55;;;;;;;10.27;6.93;;;;;;;17.99;35.83;102771.97;5012823;28;20042;-84
2022/01/12 09:42:23;;;;;;;12.52;6.68;;;;;;;17.99;35.75;102767.47;5012749;28;20063;-85
2022/01/12 09:44:50;;;;;;;10.93;6.97;;;;;;;17.98;35.57;102768.38;5011372;28;20069;-84
2022/01/12 09:47:18;;;;;;;11.65;6.97;;;;;;;17.98;35.01;102764.84;5011732;28;20050;-84
2022/01/12 09:49:47;;;;;;;8.45;6.38;;;;;;;17.99;35.48;102766.59;5013007;28;20468;-85
2022/01/12 09:52:15;;;;;;;11.63;7.13;;;;;;;17.98;35.80;102760.34;5011590;28;20049;-86
2022/01/12 09:54:43;;;;;;;9.27;6.43;;;;;;;17.98;35.72;102765.72;5015760;28;20049;-87
2022/01/12 09:57:10;;;;;;;11.65;6.50;;;;;;;17.99;35.96;102763.94;5015125;28;20417;-87
2022/01/12 09:59:37;;;;;;;10.25;5.90;;;;;;;17.99;36.04;102775.50;5017286;28;20390;-88
2022/01/12 10:02:17;;;;;;;11.18;6.25;;;;;;;17.99;35.97;102766.59;5016660;28;20072;-88
2022/01/12 10:04:44;;;;;;;10.38;6.10;;;;;;;17.99;35.91;102771.97;5016641;28;20053;-85
2022/01/12 10:07:13;;;;;;;12.82;6.47;;;;;;;18.00;36.09;102773.69;5014910;28;20053;-89
2022/01/12 10:09:44;;;;;;;9.68;6.32;;;;;;;18.01;36.12;102775.41;5016157;28;20045;-86
2022/01/12 10:12:18;;;;;;;7.45;6.40;;;;;;;18.01;36.28;102764.69;5016807;28;20053;-88
2022/01/12 10:14:59;;;;;;;9.23;5.45;;;;;;;18.01;36.25;102767.38;5014540;28;20050;-85
2022/01/12 10:17:42;;;;;;;7.88;5.90;;;;;;;18.00;36.02;102761.16;5015453;28;20494;-85
2022/01/12 10:20:09;;;;;;;8.85;6.32;;;;;;;18.01;36.25;102760.22;5016946;28;20625;-86
2022/01/12 10:22:39;;;;;;;8.15;5.95;;;;;;;18.01;36.36;102748.63;5015977;28;20053;-85
2022/01/12 10:25:19;;;;;;;8.38;5.75;;;;;;;18.01;36.42;102745.94;4998683;28;20057;-88
2022/01/12 10:27:48;;;;;;;8.40;5.95;;;;;;;18.02;36.45;102742.31;5010885;28;20046;-89
2022/01/12 10:30:34;;;;;;;9.02;5.75;;;;;;;18.01;36.55;102744.13;5013590;28;20049;-88
2022/01/12 10:33:06;;;;;;;8.85;5.95;;;;;;;18.02;36.53;102745.00;4998302;28;20050;-91
2022/01/12 10:35:40;;;;;;;8.30;6.13;;;;;;;18.01;36.50;102738.75;4998372;28;20105;-89
2022/01/12 10:38:16;;;;;;;7.93;5.72;;;;;;;18.01;36.49;102743.25;5014433;28;20038;-87
2022/01/12 10:40:49;;;;;;;8.32;6.13;;;;;;;18.01;36.56;102738.75;5014277;28;20045;-86
2022/01/12 10:43:30;;;;;;;7.50;5.80;;;;;;;18.02;36.53;102734.28;5014311;28;20110;-87
2022/01/12 10:46:00;;;;;;;7.88;5.57;;;;;;;18.02;36.63;102732.44;5014461;28;20050;-87
2022/01/12 10:48:48;;;;;;;7.00;6.07;;;;;;;18.02;36.64;102731.59;5015203;28;20042;-86
2022/01/12 10:51:26;;;;;;;12.65;6.18;;;;;;;18.02;36.53;102735.13;5016618;28;20046;-87
2022/01/12 10:53:59;;;;;;;9.82;5.88;;;;;;;18.05;36.67;102734.13;4996309;28;20053;-91
2022/01/12 10:56:27;;;;;;;;;;;;;;;18.09;36.64;102734.84;5016788;28;20057;-92
2022/01/12 10:58:57;;;;;;;9.73;5.40;;;;;;;18.11;36.82;102722.22;5017296;28;19922;-93
2022/01/12 11:01:27;;;;;;;11.18;5.88;;;;;;;18.14;36.82;102722.94;5015770;28;20046;-94
2022/01/12 11:03:55;;;;;;;10.00;5.53;;;;;;;18.16;36.88;102715.69;5015145;28;20050;-89
2022/01/12 11:06:24;;;;;;;9.18;5.90;;;;;;;18.17;36.79;102720.09;5013863;28;20552;-89
2022/01/12 11:08:51;;;;;;;9.43;5.90;;;;;;;18.18;37.22;102724.50;5014825;28;20069;-95
2022/01/12 11:11:20;;;;;;;10.55;6.40;;;;;;;18.18;36.90;102723.66;5015445;28;20115;-92
2022/01/12 11:13:51;;;;;;;11.02;6.07;;;;;;;18.18;37.17;102724.50;4998882;28;20061;-93
2022/01/12 11:16:21;;;;;;;9.63;5.82;;;;;;;18.18;36.69;102724.50;4999775;28;20049;-92
2022/01/12 11:18:50;;;;;;;11.20;6.38;;;;;;;18.19;36.94;102717.31;4998877;28;20056;-93
2022/01/12 11:21:22;;;;;;;7.80;6.00;;;;;;;18.20;36.97;102716.41;4998140;28;20058;-88
2022/01/12 11:23:52;;;;;;;9.80;6.90;;;;;;;18.21;37.21;102712.78;5014568;28;20053;-89
2022/01/12 11:26:26;;;;;;;9.55;5.93;;;;;;;18.21;37.16;102710.94;4998705;28;20046;-93
2022/01/12 11:28:54;;;;;;;7.75;5.93;;;;;;;18.21;37.11;102723.50;5015447;28;20060;-89
2022/01/12 11:31:32;;;;;;;8.02;5.57;;;;;;;18.21;37.18;102712.78;5015685;28;20395;-92
2022/01/12 11:34:00;;;;;;;7.82;5.72;;;;;;;18.21;37.13;102704.72;4999868;28;20057;-94
2022/01/12 11:36:36;;;;;;;8.27;5.55;;;;;;;18.22;36.97;102712.69;4998607;28;20064;-88
2022/01/12 11:39:07;;;;;;;7.63;6.20;;;;;;;18.23;36.97;102708.19;5016179;28;20042;-92
2022/01/12 11:41:45;;;;;;;6.93;5.18;;;;;;;18.24;36.87;102712.63;4998477;28;20058;-93
2022/01/12 11:44:22;;;;;;;7.53;6.15;;;;;;;18.26;36.88;102708.03;5015969;28;20054;-89
2022/01/12 11:46:59;;;;;;;7.78;5.40;;;;;;;18.26;36.89;102714.25;5014210;28;20052;-87
2022/01/12 11:49:34;;;;;;;10.75;5.97;;;;;;;18.26;36.88;102714.25;5015909;28;20454;-87
2022/01/12 11:52:26;;;;;;;9.20;6.43;;;;;;;18.26;37.10;102706.22;5014996;28;20050;-89
2022/01/12 11:55:12;;;;;;;7.90;5.07;;;;;;;18.27;37.00;102709.75;5013007;28;20624;-91
2022/01/12 11:57:45;;;;;;;8.60;5.45;;;;;;;18.27;36.82;102702.59;4997823;28;20080;-92
2022/01/12 12:00:19;;;;;;;9.73;5.80;;;;;;;18.28;36.95;102714.19;5013701;28;20057;-87
2022/01/12 12:02:50;;;;;;;7.35;5.13;;;;;;;18.28;36.96;102715.06;5013974;28;20061;-83
2022/01/12 12:05:20;;;;;;;10.98;5.65;;;;;;;18.27;37.03;102707.97;5012151;28;20076;-82
2022/01/12 12:07:52;;;;;;;10.45;6.18;;;;;;;18.26;36.76;102708.03;5014450;28;20385;-83
2022/01/12 12:10:25;;;;;;;9.70;5.65;;;;;;;18.27;36.39;102713.34;5013693;28;20046;-84
2022/01/12 12:12:54;;;;;;;7.32;5.60;;;;;;;18.26;36.79;102708.03;5012490;28;20061;-84
2022/01/12 12:15:23;;;;;;;8.63;5.97;;;;;;;18.26;36.68;102706.22;5013909;28;20050;-83
2022/01/12 12:17:53;;;;;;;8.88;5.60;;;;;;;18.29;36.65;102708.75;5012940;28;20048;-82
2022/01/12 12:20:22;;;;;;;7.80;5.72;;;;;;;18.32;36.45;102702.38;5013584;28;20053;-84
2022/01/12 12:22:55;;;;;;;7.38;5.55;;;;;;;18.35;36.48;102699.53;5012966;28;20068;-83
2022/01/12 12:25:25;;;;;;;7.65;5.70;;;;;;;18.36;36.41;102703.06;5014606;28;20401;-84
2022/01/12 12:27:56;;;;;;;10.77;7.68;;;;;;;18.29;32.90;102706.06;5012807;28;20053;-84
2022/01/12 12:30:25;;;;;;;8.50;6.25;;;;;;;18.18;34.93;102702.19;5014754;28;20478;-80
2022/01/12 12:32:57;;;;;;;9.88;5.85;;;;;;;18.13;37.68;102707.81;5013606;28;20049;-83
2022/01/12 12:35:29;;;;;;;8.73;5.85;;;;;;;18.11;37.37;102704.34;5014559;28;20064;-83
2022/01/12 12:38:05;;;;;;;8.00;5.57;;;;;;;18.11;37.55;102692.72;5013727;28;20421;-83
2022/01/12 12:40:42;;;;;;;7.15;5.15;;;;;;;18.10;39.29;102696.38;5013911;28;20041;-86
2022/01/12 12:43:24;;;;;;;8.27;5.93;;;;;;;18.10;39.94;102701.72;5014953;28;20050;-83
2022/01/12 12:46:11;;;;;;;11.35;6.40;;;;;;;18.10;40.67;102691.00;5014251;28;20054;-84
2022/01/12 12:48:43;;;;;;;9.85;6.78;;;;;;;18.10;42.23;102686.50;5014633;28;20046;-84